Airfield :











YOU CAN JOIN US ON...

 
LOGIN :

Register | Disclaimer

   EN    FR    IT 

 









Legend :    VFR   Marginal VFR   IFR   Intensive IFR   Very Intensive IFR
Visi :
Ceiling :
>= 8 km
>= 3000ft
5 to 8 km
1000 to 3000 ft
1500m to 5 km
500 to 1000 ft
800 to 1500m
200 to 500 ft
< 800m
< 200 ft
Symbols :   Thunderstorms  Fog  Heavy snow  Heavy precipitations  Wind > 20 kt






- Airport Elevation : 2205 ft


KVGT - North Las Vegas

CURRENT METAR :
  • 182153Z 07004KT 10SM CLR 16/M11 A3005 RMK AO2 SLP187 T01561106

EXPIRED METARs :
  • 182053Z VRB03KT 10SM CLR 14/M10 A3008 RMK AO2 SLP198 T01441100 58028
  • 181953Z 00000KT 10SM CLR 13/M10 A3012 RMK AO2 SLP213 T01281100
  • 181853Z 07005KT 10SM CLR 13/M10 A3015 RMK AO2 SLP223 T01331100

TAF KVGT
Valid from the 18 at 18:00 until the 19 at 18:00 UTC


181720Z 1818/1918 36007KT P6SM BKN250
FM182000 09007KT P6SM BKN250
FM190300 31007KT P6SM SCT150



MET'MAP, your aeronautical weather chart ! - Copyright ORBIFLY December 2007 - Disclaimer

ORBIFLY MET'MAP TEAM :

Programming & Development : Alexandra Zaïnal
Concept & original design : Baudouin d'Aumeries
Assistance for programming : Marc-Olivier Méhu
Technical & hardware support : Manuel Goepfert

Contact : metmap@orbifly.com




SOURCES & CREDITS :

   NOAA       Earth
Advisory